sensor_id;sensor_type;location;lat;lon;timestamp;P1;durP1;ratioP1;P2;durP2;ratioP2
41249;SDS011;26984;59.928;30.306;2022-08-11T00:00:32;13.95;;;12.60;;
41249;SDS011;26984;59.928;30.306;2022-08-11T00:03:03;15.63;;;13.32;;
41249;SDS011;26984;59.928;30.306;2022-08-11T00:05:33;17.02;;;12.98;;
41249;SDS011;26984;59.928;30.306;2022-08-11T00:08:12;15.25;;;13.52;;
41249;SDS011;26984;59.928;30.306;2022-08-11T00:10:50;14.35;;;12.68;;
41249;SDS011;26984;59.928;30.306;2022-08-11T00:13:20;15.82;;;12.93;;
41249;SDS011;26984;59.928;30.306;2022-08-11T00:15:49;15.27;;;12.63;;
41249;SDS011;26984;59.928;30.306;2022-08-11T00:18:17;17.23;;;14.07;;
41249;SDS011;26984;59.928;30.306;2022-08-11T00:20:46;16.00;;;13.88;;
41249;SDS011;26984;59.928;30.306;2022-08-11T00:23:16;14.25;;;12.88;;
41249;SDS011;26984;59.928;30.306;2022-08-11T00:25:45;21.05;;;14.32;;
41249;SDS011;26984;59.928;30.306;2022-08-11T00:28:24;17.88;;;14.25;;
41249;SDS011;26984;59.928;30.306;2022-08-11T00:30:54;19.48;;;13.27;;
41249;SDS011;26984;59.928;30.306;2022-08-11T00:33:27;16.05;;;14.35;;
41249;SDS011;26984;59.928;30.306;2022-08-11T00:36:00;17.17;;;15.50;;
41249;SDS011;26984;59.928;30.306;2022-08-11T00:38:32;16.90;;;14.73;;
41249;SDS011;26984;59.928;30.306;2022-08-11T00:41:10;17.48;;;14.63;;
41249;SDS011;26984;59.928;30.306;2022-08-11T00:43:49;16.52;;;14.32;;
41249;SDS011;26984;59.928;30.306;2022-08-11T00:46:31;18.80;;;13.95;;
41249;SDS011;26984;59.928;30.306;2022-08-11T00:49:12;20.80;;;13.40;;
41249;SDS011;26984;59.928;30.306;2022-08-11T00:51:54;17.67;;;11.60;;
41249;SDS011;26984;59.928;30.306;2022-08-11T00:57:38;13.82;;;8.35;;
41249;SDS011;26984;59.928;30.306;2022-08-11T01:00:20;16.77;;;8.98;;
41249;SDS011;26984;59.928;30.306;2022-08-11T01:03:00;19.00;;;8.98;;
41249;SDS011;26984;59.928;30.306;2022-08-11T01:05:50;14.18;;;8.00;;
41249;SDS011;26984;59.928;30.306;2022-08-11T01:08:41;15.07;;;7.85;;
41249;SDS011;26984;59.928;30.306;2022-08-11T01:11:36;16.25;;;7.72;;
41249;SDS011;26984;59.928;30.306;2022-08-11T01:24:00;12.25;;;7.35;;
41249;SDS011;26984;59.928;30.306;2022-08-11T01:27:14;17.33;;;8.52;;
41249;SDS011;26984;59.928;30.306;2022-08-11T01:30:18;13.32;;;8.15;;
41249;SDS011;26984;59.928;30.306;2022-08-11T01:36:31;15.07;;;7.75;;
41249;SDS011;26984;59.928;30.306;2022-08-11T01:42:39;16.50;;;8.07;;
41249;SDS011;26984;59.928;30.306;2022-08-11T01:45:47;15.32;;;7.93;;
41249;SDS011;26984;59.928;30.306;2022-08-11T01:48:27;11.13;;;7.25;;
41249;SDS011;26984;59.928;30.306;2022-08-11T01:53:58;13.73;;;7.95;;
41249;SDS011;26984;59.928;30.306;2022-08-11T01:56:43;13.88;;;8.93;;
41249;SDS011;26984;59.928;30.306;2022-08-11T01:59:19;13.57;;;7.70;;
41249;SDS011;26984;59.928;30.306;2022-08-11T02:02:16;14.02;;;8.85;;
41249;SDS011;26984;59.928;30.306;2022-08-11T02:05:14;17.85;;;8.25;;
41249;SDS011;26984;59.928;30.306;2022-08-11T02:07:54;13.20;;;8.35;;
41249;SDS011;26984;59.928;30.306;2022-08-11T02:10:29;19.40;;;8.90;;
41249;SDS011;26984;59.928;30.306;2022-08-11T02:13:22;13.18;;;7.38;;
41249;SDS011;26984;59.928;30.306;2022-08-11T02:16:03;18.48;;;8.57;;
41249;SDS011;26984;59.928;30.306;2022-08-11T02:18:40;17.67;;;7.22;;
41249;SDS011;26984;59.928;30.306;2022-08-11T02:21:36;18.98;;;9.05;;
41249;SDS011;26984;59.928;30.306;2022-08-11T02:24:27;13.18;;;7.15;;
41249;SDS011;26984;59.928;30.306;2022-08-11T02:27:03;15.18;;;6.80;;
41249;SDS011;26984;59.928;30.306;2022-08-11T02:29:36;11.77;;;6.43;;
41249;SDS011;26984;59.928;30.306;2022-08-11T02:32:17;13.27;;;6.88;;
41249;SDS011;26984;59.928;30.306;2022-08-11T02:35:10;14.13;;;7.32;;
41249;SDS011;26984;59.928;30.306;2022-08-11T02:37:45;11.00;;;5.70;;
41249;SDS011;26984;59.928;30.306;2022-08-11T02:43:03;13.10;;;6.50;;
41249;SDS011;26984;59.928;30.306;2022-08-11T02:45:47;13.73;;;6.25;;
41249;SDS011;26984;59.928;30.306;2022-08-11T02:48:27;13.23;;;6.38;;
41249;SDS011;26984;59.928;30.306;2022-08-11T02:51:23;11.18;;;6.18;;
41249;SDS011;26984;59.928;30.306;2022-08-11T02:53:58;11.00;;;6.32;;
41249;SDS011;26984;59.928;30.306;2022-08-11T02:56:36;11.95;;;5.75;;
41249;SDS011;26984;59.928;30.306;2022-08-11T02:59:16;9.23;;;5.68;;
41249;SDS011;26984;59.928;30.306;2022-08-11T03:02:10;14.05;;;5.85;;
41249;SDS011;26984;59.928;30.306;2022-08-11T03:04:45;11.77;;;5.63;;
41249;SDS011;26984;59.928;30.306;2022-08-11T03:07:27;8.20;;;5.75;;
41249;SDS011;26984;59.928;30.306;2022-08-11T03:10:02;10.60;;;5.55;;
41249;SDS011;26984;59.928;30.306;2022-08-11T03:12:39;11.27;;;5.68;;
41249;SDS011;26984;59.928;30.306;2022-08-11T03:15:36;11.45;;;6.70;;
41249;SDS011;26984;59.928;30.306;2022-08-11T03:18:30;11.63;;;5.40;;
41249;SDS011;26984;59.928;30.306;2022-08-11T03:21:05;11.40;;;6.38;;
41249;SDS011;26984;59.928;30.306;2022-08-11T03:23:42;10.82;;;5.35;;
41249;SDS011;26984;59.928;30.306;2022-08-11T03:26:21;12.05;;;5.80;;
41249;SDS011;26984;59.928;30.306;2022-08-11T03:28:58;7.53;;;5.22;;
41249;SDS011;26984;59.928;30.306;2022-08-11T03:34:02;8.73;;;5.68;;
41249;SDS011;26984;59.928;30.306;2022-08-11T03:36:43;11.50;;;5.40;;
41249;SDS011;26984;59.928;30.306;2022-08-11T03:42:11;12.20;;;5.40;;
41249;SDS011;26984;59.928;30.306;2022-08-11T03:50:33;13.02;;;5.90;;
41249;SDS011;26984;59.928;30.306;2022-08-11T03:53:31;9.27;;;5.60;;
41249;SDS011;26984;59.928;30.306;2022-08-11T03:56:22;12.38;;;6.20;;
41249;SDS011;26984;59.928;30.306;2022-08-11T04:06:16;10.32;;;6.75;;
41249;SDS011;26984;59.928;30.306;2022-08-11T04:09:37;11.63;;;6.35;;
41249;SDS011;26984;59.928;30.306;2022-08-11T04:12:45;7.95;;;5.45;;
41249;SDS011;26984;59.928;30.306;2022-08-11T04:15:37;10.30;;;6.45;;
41249;SDS011;26984;59.928;30.306;2022-08-11T04:22:01;8.68;;;5.65;;
41249;SDS011;26984;59.928;30.306;2022-08-11T04:24:51;10.93;;;5.63;;
41249;SDS011;26984;59.928;30.306;2022-08-11T04:27:28;8.52;;;5.75;;
41249;SDS011;26984;59.928;30.306;2022-08-11T04:30:11;6.45;;;5.28;;
41249;SDS011;26984;59.928;30.306;2022-08-11T04:33:01;8.80;;;5.00;;
41249;SDS011;26984;59.928;30.306;2022-08-11T04:35:58;8.90;;;4.72;;
41249;SDS011;26984;59.928;30.306;2022-08-11T04:38:56;8.68;;;5.00;;
41249;SDS011;26984;59.928;30.306;2022-08-11T04:42:05;10.25;;;5.05;;
41249;SDS011;26984;59.928;30.306;2022-08-11T04:51:42;6.28;;;4.57;;
41249;SDS011;26984;59.928;30.306;2022-08-11T04:54:52;11.27;;;4.60;;
41249;SDS011;26984;59.928;30.306;2022-08-11T04:57:57;6.40;;;3.95;;
41249;SDS011;26984;59.928;30.306;2022-08-11T05:00:53;5.65;;;4.03;;
41249;SDS011;26984;59.928;30.306;2022-08-11T05:04:02;4.47;;;3.75;;
41249;SDS011;26984;59.928;30.306;2022-08-11T05:06:56;6.72;;;3.95;;
41249;SDS011;26984;59.928;30.306;2022-08-11T05:09:54;6.50;;;4.03;;
41249;SDS011;26984;59.928;30.306;2022-08-11T05:12:39;6.88;;;4.97;;
41249;SDS011;26984;59.928;30.306;2022-08-11T05:15:11;6.45;;;4.97;;
41249;SDS011;26984;59.928;30.306;2022-08-11T05:17:59;7.78;;;4.30;;
41249;SDS011;26984;59.928;30.306;2022-08-11T05:20:51;5.82;;;3.42;;
41249;SDS011;26984;59.928;30.306;2022-08-11T05:23:39;5.38;;;3.60;;
41249;SDS011;26984;59.928;30.306;2022-08-11T05:26:28;3.95;;;3.65;;
41249;SDS011;26984;59.928;30.306;2022-08-11T05:29:24;5.22;;;3.85;;
41249;SDS011;26984;59.928;30.306;2022-08-11T05:32:12;4.50;;;3.90;;
41249;SDS011;26984;59.928;30.306;2022-08-11T05:35:01;7.50;;;4.05;;
41249;SDS011;26984;59.928;30.306;2022-08-11T05:37:33;5.57;;;3.97;;
41249;SDS011;26984;59.928;30.306;2022-08-11T05:40:08;6.30;;;4.10;;
41249;SDS011;26984;59.928;30.306;2022-08-11T05:42:57;7.35;;;3.72;;
41249;SDS011;26984;59.928;30.306;2022-08-11T05:45:43;4.88;;;4.00;;
41249;SDS011;26984;59.928;30.306;2022-08-11T05:48:40;7.75;;;3.95;;
41249;SDS011;26984;59.928;30.306;2022-08-11T05:51:32;7.80;;;4.10;;
41249;SDS011;26984;59.928;30.306;2022-08-11T05:54:18;5.75;;;4.20;;
41249;SDS011;26984;59.928;30.306;2022-08-11T05:57:04;7.15;;;3.60;;
41249;SDS011;26984;59.928;30.306;2022-08-11T05:59:34;4.70;;;3.90;;
41249;SDS011;26984;59.928;30.306;2022-08-11T06:02:03;7.10;;;4.28;;
41249;SDS011;26984;59.928;30.306;2022-08-11T06:04:33;7.82;;;4.40;;
41249;SDS011;26984;59.928;30.306;2022-08-11T06:07:03;5.05;;;4.10;;
41249;SDS011;26984;59.928;30.306;2022-08-11T06:09:35;7.20;;;4.20;;
41249;SDS011;26984;59.928;30.306;2022-08-11T06:12:05;11.38;;;4.60;;
41249;SDS011;26984;59.928;30.306;2022-08-11T06:14:40;9.23;;;4.03;;
41249;SDS011;26984;59.928;30.306;2022-08-11T06:17:09;8.98;;;4.90;;
41249;SDS011;26984;59.928;30.306;2022-08-11T06:19:39;10.55;;;7.80;;
41249;SDS011;26984;59.928;30.306;2022-08-11T06:22:09;9.05;;;5.20;;
41249;SDS011;26984;59.928;30.306;2022-08-11T06:24:39;5.68;;;4.65;;
41249;SDS011;26984;59.928;30.306;2022-08-11T06:27:17;7.40;;;5.57;;
41249;SDS011;26984;59.928;30.306;2022-08-11T06:29:48;9.13;;;5.47;;
41249;SDS011;26984;59.928;30.306;2022-08-11T06:32:17;6.55;;;4.40;;
41249;SDS011;26984;59.928;30.306;2022-08-11T06:34:51;10.57;;;5.80;;
41249;SDS011;26984;59.928;30.306;2022-08-11T06:37:29;11.02;;;5.00;;
41249;SDS011;26984;59.928;30.306;2022-08-11T06:40:10;9.40;;;5.10;;
41249;SDS011;26984;59.928;30.306;2022-08-11T06:42:44;8.10;;;5.03;;
41249;SDS011;26984;59.928;30.306;2022-08-11T06:45:31;9.10;;;4.35;;
41249;SDS011;26984;59.928;30.306;2022-08-11T06:48:05;17.45;;;5.50;;
41249;SDS011;26984;59.928;30.306;2022-08-11T06:50:41;13.55;;;5.35;;
41249;SDS011;26984;59.928;30.306;2022-08-11T06:53:32;23.48;;;5.97;;
41249;SDS011;26984;59.928;30.306;2022-08-11T06:56:01;8.50;;;4.65;;
41249;SDS011;26984;59.928;30.306;2022-08-11T06:58:46;5.00;;;3.63;;
41249;SDS011;26984;59.928;30.306;2022-08-11T07:01:39;7.43;;;4.00;;
41249;SDS011;26984;59.928;30.306;2022-08-11T07:04:13;6.90;;;4.25;;
41249;SDS011;26984;59.928;30.306;2022-08-11T07:06:50;14.10;;;5.65;;
41249;SDS011;26984;59.928;30.306;2022-08-11T07:09:57;12.25;;;4.60;;
41249;SDS011;26984;59.928;30.306;2022-08-11T07:13:10;10.85;;;4.88;;
41249;SDS011;26984;59.928;30.306;2022-08-11T07:15:57;6.72;;;4.25;;
41249;SDS011;26984;59.928;30.306;2022-08-11T07:18:28;6.47;;;4.03;;
41249;SDS011;26984;59.928;30.306;2022-08-11T07:21:19;4.75;;;3.40;;
41249;SDS011;26984;59.928;30.306;2022-08-11T07:24:09;10.30;;;4.15;;
41249;SDS011;26984;59.928;30.306;2022-08-11T07:26:58;9.23;;;3.95;;
41249;SDS011;26984;59.928;30.306;2022-08-11T07:29:45;5.68;;;3.63;;
41249;SDS011;26984;59.928;30.306;2022-08-11T07:32:18;8.77;;;4.30;;
41249;SDS011;26984;59.928;30.306;2022-08-11T07:34:54;5.50;;;3.72;;
41249;SDS011;26984;59.928;30.306;2022-08-11T07:37:28;5.95;;;3.80;;
41249;SDS011;26984;59.928;30.306;2022-08-11T07:39:59;5.78;;;3.83;;
41249;SDS011;26984;59.928;30.306;2022-08-11T07:42:30;8.60;;;4.43;;
41249;SDS011;26984;59.928;30.306;2022-08-11T07:45:03;8.15;;;4.85;;
41249;SDS011;26984;59.928;30.306;2022-08-11T07:47:50;6.18;;;4.53;;
41249;SDS011;26984;59.928;30.306;2022-08-11T07:50:40;9.52;;;6.00;;
41249;SDS011;26984;59.928;30.306;2022-08-11T07:53:28;13.30;;;5.20;;
41249;SDS011;26984;59.928;30.306;2022-08-11T07:55:57;6.35;;;5.32;;
41249;SDS011;26984;59.928;30.306;2022-08-11T07:58:26;12.55;;;5.85;;
41249;SDS011;26984;59.928;30.306;2022-08-11T08:01:17;7.55;;;4.60;;
41249;SDS011;26984;59.928;30.306;2022-08-11T08:04:05;4.63;;;3.65;;
41249;SDS011;26984;59.928;30.306;2022-08-11T08:06:53;6.47;;;3.30;;
41249;SDS011;26984;59.928;30.306;2022-08-11T08:09:39;5.68;;;3.35;;
41249;SDS011;26984;59.928;30.306;2022-08-11T08:12:26;6.97;;;3.50;;
41249;SDS011;26984;59.928;30.306;2022-08-11T08:15:13;7.03;;;3.10;;
41249;SDS011;26984;59.928;30.306;2022-08-11T08:17:59;5.72;;;3.85;;
41249;SDS011;26984;59.928;30.306;2022-08-11T08:20:29;4.78;;;3.60;;
41249;SDS011;26984;59.928;30.306;2022-08-11T08:23:02;7.70;;;3.20;;
41249;SDS011;26984;59.928;30.306;2022-08-11T08:25:32;5.55;;;3.63;;
41249;SDS011;26984;59.928;30.306;2022-08-11T08:28:09;8.15;;;3.33;;
41249;SDS011;26984;59.928;30.306;2022-08-11T08:30:40;9.07;;;4.13;;
41249;SDS011;26984;59.928;30.306;2022-08-11T08:33:17;7.00;;;4.05;;
41249;SDS011;26984;59.928;30.306;2022-08-11T08:35:47;11.25;;;5.40;;
41249;SDS011;26984;59.928;30.306;2022-08-11T08:41:05;5.05;;;3.58;;
41249;SDS011;26984;59.928;30.306;2022-08-11T08:43:35;4.25;;;3.70;;
41249;SDS011;26984;59.928;30.306;2022-08-11T08:46:04;4.60;;;4.30;;
41249;SDS011;26984;59.928;30.306;2022-08-11T08:48:35;4.25;;;3.47;;
41249;SDS011;26984;59.928;30.306;2022-08-11T08:51:08;6.05;;;4.78;;
41249;SDS011;26984;59.928;30.306;2022-08-11T08:53:59;5.35;;;4.20;;
41249;SDS011;26984;59.928;30.306;2022-08-11T08:56:31;6.22;;;3.90;;
41249;SDS011;26984;59.928;30.306;2022-08-11T08:59:00;5.47;;;4.65;;
41249;SDS011;26984;59.928;30.306;2022-08-11T09:01:29;5.47;;;4.18;;
41249;SDS011;26984;59.928;30.306;2022-08-11T09:04:02;4.32;;;3.90;;
41249;SDS011;26984;59.928;30.306;2022-08-11T09:06:33;5.85;;;4.07;;
41249;SDS011;26984;59.928;30.306;2022-08-11T09:09:06;6.28;;;4.25;;
41249;SDS011;26984;59.928;30.306;2022-08-11T09:11:34;4.32;;;3.88;;
41249;SDS011;26984;59.928;30.306;2022-08-11T09:14:23;4.88;;;3.63;;
41249;SDS011;26984;59.928;30.306;2022-08-11T09:17:12;5.03;;;3.22;;
41249;SDS011;26984;59.928;30.306;2022-08-11T09:19:40;7.97;;;4.13;;
41249;SDS011;26984;59.928;30.306;2022-08-11T09:22:08;4.97;;;3.80;;
41249;SDS011;26984;59.928;30.306;2022-08-11T09:24:52;3.67;;;3.33;;
41249;SDS011;26984;59.928;30.306;2022-08-11T09:27:38;4.57;;;3.10;;
41249;SDS011;26984;59.928;30.306;2022-08-11T09:30:08;4.18;;;3.78;;
41249;SDS011;26984;59.928;30.306;2022-08-11T09:32:38;4.15;;;3.40;;
41249;SDS011;26984;59.928;30.306;2022-08-11T09:35:07;4.70;;;3.78;;
41249;SDS011;26984;59.928;30.306;2022-08-11T09:37:35;5.57;;;3.78;;
41249;SDS011;26984;59.928;30.306;2022-08-11T09:40:29;3.72;;;2.92;;
41249;SDS011;26984;59.928;30.306;2022-08-11T09:42:57;7.35;;;6.78;;
41249;SDS011;26984;59.928;30.306;2022-08-11T09:45:44;4.25;;;3.70;;
41249;SDS011;26984;59.928;30.306;2022-08-11T09:48:16;7.13;;;3.38;;
41249;SDS011;26984;59.928;30.306;2022-08-11T09:50:45;4.70;;;3.42;;
41249;SDS011;26984;59.928;30.306;2022-08-11T09:53:16;6.75;;;3.13;;
41249;SDS011;26984;59.928;30.306;2022-08-11T09:55:47;4.75;;;3.58;;
41249;SDS011;26984;59.928;30.306;2022-08-11T09:58:17;6.47;;;2.75;;
41249;SDS011;26984;59.928;30.306;2022-08-11T10:00:46;12.20;;;4.43;;
41249;SDS011;26984;59.928;30.306;2022-08-11T10:03:16;3.40;;;3.17;;
41249;SDS011;26984;59.928;30.306;2022-08-11T10:05:47;5.75;;;3.75;;
41249;SDS011;26984;59.928;30.306;2022-08-11T10:08:35;8.30;;;4.10;;
41249;SDS011;26984;59.928;30.306;2022-08-11T10:11:07;8.80;;;4.72;;
41249;SDS011;26984;59.928;30.306;2022-08-11T10:13:40;5.30;;;3.80;;
41249;SDS011;26984;59.928;30.306;2022-08-11T10:16:23;4.60;;;3.60;;
41249;SDS011;26984;59.928;30.306;2022-08-11T10:18:55;4.93;;;3.40;;
41249;SDS011;26984;59.928;30.306;2022-08-11T10:21:28;3.58;;;3.30;;
41249;SDS011;26984;59.928;30.306;2022-08-11T10:24:03;3.50;;;3.20;;
41249;SDS011;26984;59.928;30.306;2022-08-11T10:26:52;5.28;;;3.95;;
41249;SDS011;26984;59.928;30.306;2022-08-11T10:29:24;16.58;;;8.00;;
41249;SDS011;26984;59.928;30.306;2022-08-11T10:32:12;4.63;;;4.13;;
41249;SDS011;26984;59.928;30.306;2022-08-11T10:35:00;6.00;;;3.83;;
41249;SDS011;26984;59.928;30.306;2022-08-11T10:37:32;7.40;;;4.25;;
41249;SDS011;26984;59.928;30.306;2022-08-11T10:40:02;3.80;;;3.38;;
41249;SDS011;26984;59.928;30.306;2022-08-11T10:42:33;3.70;;;2.97;;
41249;SDS011;26984;59.928;30.306;2022-08-11T10:45:20;3.90;;;3.60;;
41249;SDS011;26984;59.928;30.306;2022-08-11T10:48:05;6.88;;;3.50;;
41249;SDS011;26984;59.928;30.306;2022-08-11T10:50:35;7.68;;;3.63;;
41249;SDS011;26984;59.928;30.306;2022-08-11T10:53:21;7.88;;;3.70;;
41249;SDS011;26984;59.928;30.306;2022-08-11T10:56:07;8.25;;;3.75;;
41249;SDS011;26984;59.928;30.306;2022-08-11T10:58:54;5.43;;;3.20;;
41249;SDS011;26984;59.928;30.306;2022-08-11T11:01:25;5.53;;;4.93;;
41249;SDS011;26984;59.928;30.306;2022-08-11T11:03:55;5.85;;;3.15;;
41249;SDS011;26984;59.928;30.306;2022-08-11T11:06:26;4.30;;;3.33;;
41249;SDS011;26984;59.928;30.306;2022-08-11T11:09:01;5.80;;;3.60;;
41249;SDS011;26984;59.928;30.306;2022-08-11T11:11:32;8.13;;;4.20;;
41249;SDS011;26984;59.928;30.306;2022-08-11T11:14:23;8.40;;;3.60;;
41249;SDS011;26984;59.928;30.306;2022-08-11T11:17:13;7.90;;;4.00;;
41249;SDS011;26984;59.928;30.306;2022-08-11T11:20:00;3.83;;;3.42;;
41249;SDS011;26984;59.928;30.306;2022-08-11T11:22:32;5.55;;;3.85;;
41249;SDS011;26984;59.928;30.306;2022-08-11T11:25:09;4.80;;;3.17;;
41249;SDS011;26984;59.928;30.306;2022-08-11T11:27:50;6.68;;;3.40;;
41249;SDS011;26984;59.928;30.306;2022-08-11T11:30:47;8.88;;;3.60;;
41249;SDS011;26984;59.928;30.306;2022-08-11T11:33:25;6.13;;;5.13;;
41249;SDS011;26984;59.928;30.306;2022-08-11T11:36:06;7.35;;;2.80;;
41249;SDS011;26984;59.928;30.306;2022-08-11T11:38:42;4.28;;;3.85;;
41249;SDS011;26984;59.928;30.306;2022-08-11T11:41:10;5.30;;;3.88;;
41249;SDS011;26984;59.928;30.306;2022-08-11T11:43:51;6.20;;;2.95;;
41249;SDS011;26984;59.928;30.306;2022-08-11T11:46:22;4.13;;;3.67;;
41249;SDS011;26984;59.928;30.306;2022-08-11T11:48:53;4.10;;;3.72;;
41249;SDS011;26984;59.928;30.306;2022-08-11T11:51:21;6.53;;;3.50;;
41249;SDS011;26984;59.928;30.306;2022-08-11T11:53:50;5.13;;;3.38;;
41249;SDS011;26984;59.928;30.306;2022-08-11T11:56:20;4.25;;;3.85;;
41249;SDS011;26984;59.928;30.306;2022-08-11T11:58:50;4.22;;;3.78;;
41249;SDS011;26984;59.928;30.306;2022-08-11T12:01:38;5.35;;;4.28;;
41249;SDS011;26984;59.928;30.306;2022-08-11T12:04:08;4.40;;;3.63;;
41249;SDS011;26984;59.928;30.306;2022-08-11T12:06:38;4.55;;;3.67;;
41249;SDS011;26984;59.928;30.306;2022-08-11T12:09:07;4.82;;;4.25;;
41249;SDS011;26984;59.928;30.306;2022-08-11T12:11:43;6.75;;;3.83;;
41249;SDS011;26984;59.928;30.306;2022-08-11T12:14:29;5.43;;;3.70;;
41249;SDS011;26984;59.928;30.306;2022-08-11T12:16:58;4.78;;;3.85;;
41249;SDS011;26984;59.928;30.306;2022-08-11T12:19:27;5.90;;;3.47;;
41249;SDS011;26984;59.928;30.306;2022-08-11T12:21:55;4.32;;;3.92;;
41249;SDS011;26984;59.928;30.306;2022-08-11T12:24:41;5.63;;;3.70;;
41249;SDS011;26984;59.928;30.306;2022-08-11T12:27:26;7.55;;;3.75;;
41249;SDS011;26984;59.928;30.306;2022-08-11T12:29:57;7.60;;;3.03;;
41249;SDS011;26984;59.928;30.306;2022-08-11T12:32:33;3.78;;;3.10;;
41249;SDS011;26984;59.928;30.306;2022-08-11T12:35:02;4.47;;;2.53;;
41249;SDS011;26984;59.928;30.306;2022-08-11T12:37:31;4.47;;;2.60;;
41249;SDS011;26984;59.928;30.306;2022-08-11T12:40:06;4.88;;;2.80;;
41249;SDS011;26984;59.928;30.306;2022-08-11T12:42:54;5.75;;;2.78;;
41249;SDS011;26984;59.928;30.306;2022-08-11T12:45:45;7.50;;;2.70;;
41249;SDS011;26984;59.928;30.306;2022-08-11T12:48:16;4.13;;;3.15;;
41249;SDS011;26984;59.928;30.306;2022-08-11T12:51:05;5.30;;;3.78;;
41249;SDS011;26984;59.928;30.306;2022-08-11T12:53:54;5.60;;;2.90;;
41249;SDS011;26984;59.928;30.306;2022-08-11T12:56:26;5.68;;;2.50;;
41249;SDS011;26984;59.928;30.306;2022-08-11T12:59:16;5.28;;;3.22;;
41249;SDS011;26984;59.928;30.306;2022-08-11T13:02:01;3.90;;;2.60;;
41249;SDS011;26984;59.928;30.306;2022-08-11T13:04:48;6.00;;;4.78;;
41249;SDS011;26984;59.928;30.306;2022-08-11T13:07:24;8.90;;;3.70;;
41249;SDS011;26984;59.928;30.306;2022-08-11T13:09:53;3.97;;;3.05;;
41249;SDS011;26984;59.928;30.306;2022-08-11T13:12:22;6.68;;;5.15;;
41249;SDS011;26984;59.928;30.306;2022-08-11T13:15:09;4.43;;;3.50;;
41249;SDS011;26984;59.928;30.306;2022-08-11T13:17:40;5.45;;;3.08;;
41249;SDS011;26984;59.928;30.306;2022-08-11T13:20:10;3.92;;;3.13;;
41249;SDS011;26984;59.928;30.306;2022-08-11T13:22:40;8.90;;;8.07;;
41249;SDS011;26984;59.928;30.306;2022-08-11T13:25:10;5.45;;;2.83;;
41249;SDS011;26984;59.928;30.306;2022-08-11T13:27:41;8.63;;;7.68;;
41249;SDS011;26984;59.928;30.306;2022-08-11T13:30:10;5.40;;;3.08;;
41249;SDS011;26984;59.928;30.306;2022-08-11T13:32:57;4.38;;;2.83;;
41249;SDS011;26984;59.928;30.306;2022-08-11T13:35:27;5.03;;;2.55;;
41249;SDS011;26984;59.928;30.306;2022-08-11T13:37:57;6.15;;;2.78;;
41249;SDS011;26984;59.928;30.306;2022-08-11T13:40:28;5.10;;;2.45;;
41249;SDS011;26984;59.928;30.306;2022-08-11T13:42:58;4.38;;;2.97;;
41249;SDS011;26984;59.928;30.306;2022-08-11T13:45:26;7.28;;;3.95;;
41249;SDS011;26984;59.928;30.306;2022-08-11T13:47:55;5.63;;;3.33;;
41249;SDS011;26984;59.928;30.306;2022-08-11T13:50:24;4.28;;;3.40;;
41249;SDS011;26984;59.928;30.306;2022-08-11T13:53:15;4.68;;;2.90;;
41249;SDS011;26984;59.928;30.306;2022-08-11T13:55:47;5.72;;;2.88;;
41249;SDS011;26984;59.928;30.306;2022-08-11T13:58:15;8.05;;;2.80;;
41249;SDS011;26984;59.928;30.306;2022-08-11T14:00:47;4.10;;;3.17;;
41249;SDS011;26984;59.928;30.306;2022-08-11T14:03:18;3.50;;;2.60;;
41249;SDS011;26984;59.928;30.306;2022-08-11T14:05:51;4.72;;;2.78;;
41249;SDS011;26984;59.928;30.306;2022-08-11T14:08:24;5.72;;;3.13;;
41249;SDS011;26984;59.928;30.306;2022-08-11T14:10:54;5.50;;;3.05;;
41249;SDS011;26984;59.928;30.306;2022-08-11T14:13:44;6.53;;;3.20;;
41249;SDS011;26984;59.928;30.306;2022-08-11T14:16:15;4.50;;;2.67;;
41249;SDS011;26984;59.928;30.306;2022-08-11T14:18:51;3.67;;;2.30;;
41249;SDS011;26984;59.928;30.306;2022-08-11T14:21:20;7.57;;;3.33;;
41249;SDS011;26984;59.928;30.306;2022-08-11T14:24:09;4.47;;;3.05;;
41249;SDS011;26984;59.928;30.306;2022-08-11T14:26:38;5.93;;;2.85;;
41249;SDS011;26984;59.928;30.306;2022-08-11T14:29:09;3.60;;;3.30;;
41249;SDS011;26984;59.928;30.306;2022-08-11T14:31:42;7.75;;;3.30;;
41249;SDS011;26984;59.928;30.306;2022-08-11T14:34:11;3.60;;;3.30;;
41249;SDS011;26984;59.928;30.306;2022-08-11T14:36:42;4.20;;;2.72;;
41249;SDS011;26984;59.928;30.306;2022-08-11T14:39:14;3.90;;;2.60;;
41249;SDS011;26984;59.928;30.306;2022-08-11T14:41:44;4.22;;;2.60;;
41249;SDS011;26984;59.928;30.306;2022-08-11T14:44:31;5.03;;;2.85;;
41249;SDS011;26984;59.928;30.306;2022-08-11T14:47:19;4.78;;;3.15;;
41249;SDS011;26984;59.928;30.306;2022-08-11T14:49:48;4.07;;;3.50;;
41249;SDS011;26984;59.928;30.306;2022-08-11T14:52:17;5.68;;;3.63;;
41249;SDS011;26984;59.928;30.306;2022-08-11T14:54:49;6.43;;;4.13;;
41249;SDS011;26984;59.928;30.306;2022-08-11T14:57:37;6.97;;;4.07;;
41249;SDS011;26984;59.928;30.306;2022-08-11T15:00:07;4.78;;;4.28;;
41249;SDS011;26984;59.928;30.306;2022-08-11T15:02:38;9.07;;;3.90;;
41249;SDS011;26984;59.928;30.306;2022-08-11T15:05:24;4.45;;;4.10;;
41249;SDS011;26984;59.928;30.306;2022-08-11T15:07:53;6.72;;;4.30;;
41249;SDS011;26984;59.928;30.306;2022-08-11T15:10:23;5.10;;;4.60;;
41249;SDS011;26984;59.928;30.306;2022-08-11T15:12:52;7.28;;;4.60;;
41249;SDS011;26984;59.928;30.306;2022-08-11T15:15:20;6.75;;;4.25;;
41249;SDS011;26984;59.928;30.306;2022-08-11T15:18:07;5.35;;;4.85;;
41249;SDS011;26984;59.928;30.306;2022-08-11T15:20:38;3.60;;;3.30;;
41249;SDS011;26984;59.928;30.306;2022-08-11T15:23:24;9.18;;;4.53;;
41249;SDS011;26984;59.928;30.306;2022-08-11T15:26:11;8.35;;;4.00;;
41249;SDS011;26984;59.928;30.306;2022-08-11T15:28:43;3.72;;;3.10;;
41249;SDS011;26984;59.928;30.306;2022-08-11T15:31:30;9.13;;;3.35;;
41249;SDS011;26984;59.928;30.306;2022-08-11T15:34:17;10.25;;;4.00;;
41249;SDS011;26984;59.928;30.306;2022-08-11T15:37:06;7.25;;;4.90;;
41249;SDS011;26984;59.928;30.306;2022-08-11T15:39:55;8.88;;;4.05;;
41249;SDS011;26984;59.928;30.306;2022-08-11T15:42:48;4.90;;;3.55;;
41249;SDS011;26984;59.928;30.306;2022-08-11T15:45:37;5.78;;;3.20;;
41249;SDS011;26984;59.928;30.306;2022-08-11T15:48:19;5.30;;;3.50;;
41249;SDS011;26984;59.928;30.306;2022-08-11T15:50:56;3.95;;;3.65;;
41249;SDS011;26984;59.928;30.306;2022-08-11T15:53:31;7.22;;;4.55;;
41249;SDS011;26984;59.928;30.306;2022-08-11T15:56:04;7.78;;;4.13;;
41249;SDS011;26984;59.928;30.306;2022-08-11T15:58:37;5.88;;;3.72;;
41249;SDS011;26984;59.928;30.306;2022-08-11T16:01:25;7.03;;;4.00;;
41249;SDS011;26984;59.928;30.306;2022-08-11T16:04:13;6.03;;;4.50;;
41249;SDS011;26984;59.928;30.306;2022-08-11T16:06:44;6.10;;;3.70;;
41249;SDS011;26984;59.928;30.306;2022-08-11T16:09:22;7.60;;;3.65;;
41249;SDS011;26984;59.928;30.306;2022-08-11T16:11:54;3.92;;;3.30;;
41249;SDS011;26984;59.928;30.306;2022-08-11T16:14:28;7.47;;;3.38;;
41249;SDS011;26984;59.928;30.306;2022-08-11T16:17:18;9.80;;;3.63;;
41249;SDS011;26984;59.928;30.306;2022-08-11T16:19:50;4.32;;;3.42;;
41249;SDS011;26984;59.928;30.306;2022-08-11T16:22:21;4.70;;;3.63;;
41249;SDS011;26984;59.928;30.306;2022-08-11T16:25:04;8.68;;;3.85;;
41249;SDS011;26984;59.928;30.306;2022-08-11T16:27:36;7.38;;;3.50;;
41249;SDS011;26984;59.928;30.306;2022-08-11T16:30:08;4.43;;;3.35;;
41249;SDS011;26984;59.928;30.306;2022-08-11T16:32:40;6.15;;;3.47;;
41249;SDS011;26984;59.928;30.306;2022-08-11T16:35:11;5.65;;;3.50;;
41249;SDS011;26984;59.928;30.306;2022-08-11T16:37:59;5.10;;;3.15;;